createdAt,value
2022-07-27T00:01:06.967Z,70.27
2022-07-27T00:03:35.149Z,69.80
2022-07-27T00:06:02.945Z,69.30
2022-07-27T00:08:30.819Z,69.20
2022-07-27T00:11:00.330Z,69.05
2022-07-27T00:13:28.659Z,68.83
2022-07-27T00:15:56.763Z,69.27
2022-07-27T00:18:25.020Z,69.26
2022-07-27T00:20:53.062Z,69.24
2022-07-27T00:23:21.222Z,69.66
2022-07-27T00:25:48.985Z,69.58
2022-07-27T00:28:18.613Z,69.78
2022-07-27T00:30:46.849Z,69.65
2022-07-27T00:33:17.463Z,69.73
2022-07-27T00:35:45.798Z,69.95
2022-07-27T00:38:13.948Z,70.02
2022-07-27T00:40:42.282Z,70.01
2022-07-27T00:43:10.237Z,69.62
2022-07-27T00:45:39.779Z,69.85
2022-07-27T00:48:08.022Z,69.84
2022-07-27T00:50:36.087Z,69.65
2022-07-27T00:53:06.074Z,70.27
2022-07-27T00:55:34.361Z,69.84
2022-07-27T00:58:05.066Z,69.92
2022-07-27T01:00:33.086Z,70.04
2022-07-27T01:03:09.333Z,70.42
2022-07-27T01:05:43.015Z,70.91
2022-07-27T01:08:14.661Z,71.02
2022-07-27T01:10:44.363Z,71.09
2022-07-27T01:13:13.423Z,71.96
2022-07-27T01:15:42.629Z,71.82
2022-07-27T01:18:14.600Z,71.55
2022-07-27T01:20:43.093Z,71.63
2022-07-27T01:23:12.310Z,71.29
2022-07-27T01:25:42.476Z,71.63
2022-07-27T01:28:10.618Z,72.14
2022-07-27T01:30:38.362Z,72.69
2022-07-27T01:33:08.108Z,72.77
2022-07-27T01:35:37.271Z,73.08
2022-07-27T01:38:06.094Z,72.52
2022-07-27T01:40:36.789Z,73.38
2022-07-27T01:43:05.797Z,72.29
2022-07-27T01:45:33.682Z,72.15
2022-07-27T01:48:02.211Z,72.34
2022-07-27T01:50:30.588Z,71.51
2022-07-27T01:52:58.512Z,71.40
2022-07-27T01:55:26.589Z,70.91
2022-07-27T01:58:00.753Z,69.37
2022-07-27T02:00:28.711Z,70.23
2022-07-27T02:02:56.651Z,70.40
2022-07-27T02:05:24.958Z,69.74
2022-07-27T02:07:53.157Z,69.70
2022-07-27T02:10:21.187Z,69.71
2022-07-27T02:12:48.447Z,70.52
2022-07-27T02:15:20.211Z,70.15
2022-07-27T02:17:49.384Z,69.91
2022-07-27T02:20:21.231Z,70.13
2022-07-27T02:22:49.708Z,70.52
2022-07-27T02:25:19.726Z,70.56
2022-07-27T02:27:48.710Z,71.32
2022-07-27T02:30:18.009Z,71.81
2022-07-27T02:32:46.438Z,71.84
2022-07-27T02:35:18.703Z,72.72
2022-07-27T02:37:49.074Z,73.04
2022-07-27T02:40:18.470Z,73.33
2022-07-27T02:42:46.403Z,73.37
2022-07-27T02:45:15.303Z,73.76
2022-07-27T02:47:45.507Z,74.20
2022-07-27T02:50:13.439Z,74.27
2022-07-27T02:52:41.788Z,74.39
2022-07-27T02:55:11.087Z,74.43
2022-07-27T02:57:41.366Z,74.67
2022-07-27T03:00:12.750Z,75.26
2022-07-27T03:02:41.587Z,74.96
2022-07-27T03:05:12.556Z,75.68
2022-07-27T03:07:40.697Z,75.92
2022-07-27T03:10:09.982Z,76.78
2022-07-27T03:12:37.847Z,76.99
2022-07-27T03:15:06.695Z,77.51
2022-07-27T03:17:34.939Z,77.83
2022-07-27T03:20:03.197Z,78.05
2022-07-27T03:22:33.564Z,78.31
2022-07-27T03:25:01.859Z,78.73
2022-07-27T03:27:30.292Z,78.77
2022-07-27T03:29:58.282Z,79.18
2022-07-27T03:32:26.550Z,79.47
2022-07-27T03:34:54.844Z,79.89
2022-07-27T03:37:23.005Z,79.39
2022-07-27T03:39:52.182Z,79.46
2022-07-27T03:42:20.416Z,80.30
2022-07-27T03:44:48.525Z,80.04
2022-07-27T03:47:16.683Z,79.41
2022-07-27T03:49:44.555Z,79.45
2022-07-27T03:52:17.367Z,79.24
2022-07-27T03:54:46.254Z,79.25
2022-07-27T03:57:16.080Z,79.36
2022-07-27T03:59:44.227Z,79.36
2022-07-27T04:02:12.325Z,79.49
2022-07-27T04:04:40.277Z,79.06
2022-07-27T04:07:08.763Z,79.86
2022-07-27T04:09:37.916Z,79.70
2022-07-27T04:12:08.464Z,79.37
2022-07-27T04:14:38.193Z,79.13
2022-07-27T04:17:06.063Z,78.55
2022-07-27T04:19:34.335Z,77.96
2022-07-27T04:22:03.436Z,78.25
2022-07-27T04:24:37.438Z,78.30
2022-07-27T04:27:05.439Z,78.38
2022-07-27T04:29:33.701Z,77.96
2022-07-27T04:32:03.479Z,77.53
2022-07-27T04:34:31.201Z,77.63
2022-07-27T04:36:59.261Z,78.32
2022-07-27T04:39:27.530Z,78.61
2022-07-27T04:41:55.292Z,78.61
2022-07-27T04:44:23.415Z,77.65
2022-07-27T04:46:51.433Z,77.92
2022-07-27T04:49:20.745Z,77.07
2022-07-27T04:51:48.701Z,77.71
2022-07-27T04:54:16.750Z,77.14
2022-07-27T04:56:44.807Z,77.04
2022-07-27T04:59:13.365Z,77.31
2022-07-27T05:01:41.506Z,76.26
2022-07-27T05:04:09.403Z,75.87
2022-07-27T05:06:38.782Z,74.82
2022-07-27T05:09:07.326Z,75.72
2022-07-27T05:11:35.256Z,75.21
2022-07-27T05:14:04.040Z,75.66
2022-07-27T05:16:32.204Z,75.34
2022-07-27T05:19:00.124Z,75.58
2022-07-27T05:21:29.200Z,75.59
2022-07-27T05:23:59.657Z,75.11
2022-07-27T05:26:27.886Z,75.06
2022-07-27T05:28:55.975Z,75.22
2022-07-27T05:31:23.812Z,73.96
2022-07-27T05:33:58.151Z,73.31
2022-07-27T05:36:26.361Z,73.14
2022-07-27T05:38:54.240Z,73.71
2022-07-27T05:41:25.593Z,73.64
2022-07-27T05:43:55.303Z,73.05
2022-07-27T05:46:23.610Z,71.60
2022-07-27T05:48:51.644Z,70.27
2022-07-27T05:51:19.784Z,69.64
2022-07-27T05:53:47.895Z,69.54
2022-07-27T05:56:15.727Z,67.21
2022-07-27T05:58:44.959Z,67.66
2022-07-27T06:01:13.016Z,70.90
2022-07-27T06:03:41.031Z,71.39
2022-07-27T06:06:26.379Z,67.93
2022-07-27T06:08:55.319Z,65.43
2022-07-27T06:11:23.300Z,62.94
2022-07-27T06:13:52.919Z,64.67
2022-07-27T06:16:20.798Z,61.24
2022-07-27T06:18:49.118Z,60.28
2022-07-27T06:21:17.117Z,57.43
2022-07-27T06:23:45.276Z,59.54
2022-07-27T06:26:13.349Z,61.86
2022-07-27T06:28:41.625Z,58.31
2022-07-27T06:31:10.974Z,57.43
2022-07-27T06:33:38.883Z,59.71
2022-07-27T06:36:08.399Z,63.06
2022-07-27T06:38:36.341Z,64.66
2022-07-27T06:41:04.690Z,66.43
2022-07-27T06:43:33.564Z,66.36
2022-07-27T06:46:03.380Z,66.22
2022-07-27T06:48:32.700Z,65.57
2022-07-27T06:51:01.270Z,63.32
2022-07-27T06:53:29.399Z,61.71
2022-07-27T06:56:04.951Z,63.41
2022-07-27T06:58:32.925Z,62.88
2022-07-27T07:01:02.530Z,61.54
2022-07-27T07:03:32.141Z,62.11
2022-07-27T07:05:59.997Z,62.25
2022-07-27T07:08:28.269Z,59.11
2022-07-27T07:10:56.385Z,54.81
2022-07-27T07:13:24.538Z,56.84
2022-07-27T07:15:52.525Z,58.33
2022-07-27T07:18:20.741Z,58.23
2022-07-27T07:20:50.241Z,58.43
2022-07-27T07:23:18.120Z,58.61
2022-07-27T07:25:45.861Z,56.49
2022-07-27T07:28:14.053Z,58.94
2022-07-27T07:30:42.879Z,57.31
2022-07-27T07:33:10.915Z,55.82
2022-07-27T07:35:38.782Z,56.71
2022-07-27T07:38:28.045Z,54.44
2022-07-27T07:40:55.783Z,53.70
2022-07-27T07:43:23.674Z,53.06
2022-07-27T07:45:52.297Z,55.15
2022-07-27T07:48:22.165Z,59.55
2022-07-27T07:50:52.149Z,59.42
2022-07-27T07:53:22.577Z,57.42
2022-07-27T07:55:52.317Z,59.53
2022-07-27T07:58:20.735Z,55.17
2022-07-27T08:00:49.095Z,51.22
2022-07-27T08:03:17.534Z,51.88
2022-07-27T08:05:46.019Z,51.36
2022-07-27T08:08:14.832Z,56.47
2022-07-27T08:10:42.696Z,51.98
2022-07-27T08:13:12.390Z,47.32
2022-07-27T08:15:40.268Z,47.24
2022-07-27T08:18:09.573Z,49.02
2022-07-27T08:20:37.875Z,49.66
2022-07-27T08:23:05.825Z,54.00
2022-07-27T08:28:02.649Z,44.79
2022-07-27T08:30:33.709Z,45.69
2022-07-27T08:33:04.176Z,41.47
2022-07-27T08:35:33.700Z,43.10
2022-07-27T08:38:02.909Z,40.37
2022-07-27T08:40:41.441Z,41.93
2022-07-27T08:43:11.761Z,46.56
2022-07-27T08:45:44.327Z,48.61
2022-07-27T08:48:14.034Z,47.37
2022-07-27T08:50:42.931Z,46.48
2022-07-27T08:53:14.170Z,47.69
2022-07-27T08:55:44.012Z,48.40
2022-07-27T08:58:13.820Z,50.17
2022-07-27T09:00:45.254Z,49.20
2022-07-27T09:03:19.027Z,46.85
2022-07-27T09:05:49.737Z,47.72
2022-07-27T09:08:21.629Z,44.61
2022-07-27T09:10:50.085Z,42.53
2022-07-27T09:13:28.998Z,45.34
2022-07-27T09:18:48.491Z,46.39
2022-07-27T09:21:18.470Z,43.21
2022-07-27T09:23:48.631Z,43.25
2022-07-27T09:26:31.859Z,42.68
2022-07-27T09:29:03.697Z,40.51
2022-07-27T09:31:34.086Z,41.82
2022-07-27T09:34:03.618Z,40.77
2022-07-27T09:36:32.607Z,42.16
2022-07-27T09:39:04.204Z,43.15
2022-07-27T09:41:49.593Z,40.80
2022-07-27T09:44:34.716Z,38.42
2022-07-27T09:47:22.585Z,38.12
2022-07-27T09:49:50.980Z,37.39
2022-07-27T09:52:24.612Z,39.07
2022-07-27T09:54:52.941Z,42.54
2022-07-27T09:57:21.185Z,42.42
2022-07-27T09:59:49.170Z,40.54
2022-07-27T10:02:18.962Z,41.58
2022-07-27T10:04:48.480Z,40.72
2022-07-27T10:07:17.895Z,37.94
2022-07-27T10:09:47.033Z,39.38
2022-07-27T10:12:14.815Z,37.37
2022-07-27T10:14:44.184Z,35.73
2022-07-27T10:17:13.726Z,36.98
2022-07-27T10:19:47.721Z,36.66
2022-07-27T10:22:16.010Z,39.61
2022-07-27T10:24:45.455Z,40.07
2022-07-27T10:27:22.565Z,37.87
2022-07-27T10:29:52.001Z,36.04
2022-07-27T10:32:27.095Z,31.90
2022-07-27T10:34:56.410Z,34.25
2022-07-27T10:37:26.564Z,34.15
2022-07-27T10:40:16.092Z,33.76
2022-07-27T10:42:47.817Z,33.42
2022-07-27T10:45:20.522Z,32.55
2022-07-27T10:47:51.005Z,32.87
2022-07-27T10:50:32.630Z,30.62
2022-07-27T10:53:11.327Z,29.28
2022-07-27T10:55:49.566Z,30.59
2022-07-27T10:58:59.958Z,38.84
2022-07-27T11:01:28.372Z,37.88
2022-07-27T11:03:57.032Z,37.33
2022-07-27T11:06:36.309Z,37.31
2022-07-27T11:11:59.626Z,34.32
2022-07-27T11:14:31.234Z,38.30
2022-07-27T11:17:32.444Z,35.23
2022-07-27T11:19:54.904Z,33.03
2022-07-27T11:25:24.690Z,34.91
2022-07-27T11:27:55.320Z,32.98
2022-07-27T11:30:25.266Z,31.51
2022-07-27T11:32:53.990Z,30.79
2022-07-27T11:35:22.325Z,28.63
2022-07-27T11:38:07.868Z,27.10
2022-07-27T11:40:57.013Z,29.77
2022-07-27T11:43:39.051Z,30.50
2022-07-27T11:46:16.136Z,28.32
2022-07-27T11:51:38.516Z,26.78
2022-07-27T11:54:10.027Z,22.61
2022-07-27T11:56:40.311Z,22.73
2022-07-27T11:59:12.345Z,29.13
2022-07-27T12:01:42.346Z,32.51
2022-07-27T12:04:28.648Z,30.43
2022-07-27T12:07:03.525Z,30.32
2022-07-27T12:09:38.660Z,35.35
2022-07-27T12:12:12.363Z,34.44
2022-07-27T12:14:42.871Z,29.13
2022-07-27T12:17:28.997Z,31.39
2022-07-27T12:20:01.023Z,33.41
2022-07-27T12:22:35.535Z,32.22
2022-07-27T12:25:12.374Z,34.28
2022-07-27T12:27:56.437Z,31.64
2022-07-27T12:30:31.142Z,29.81
2022-07-27T12:32:59.938Z,25.25
2022-07-27T12:35:36.066Z,21.98
2022-07-27T12:38:07.301Z,25.21
2022-07-27T12:40:45.143Z,24.43
2022-07-27T12:43:17.698Z,25.59
2022-07-27T12:45:46.508Z,27.22
2022-07-27T12:48:17.948Z,26.77
2022-07-27T12:50:48.517Z,23.40
2022-07-27T12:53:18.853Z,23.29
2022-07-27T12:55:48.788Z,23.67
2022-07-27T12:58:17.220Z,25.55
2022-07-27T13:00:45.695Z,25.26
2022-07-27T13:03:13.741Z,25.19
2022-07-27T13:05:42.546Z,27.91
2022-07-27T13:08:11.690Z,24.42
2022-07-27T13:10:40.802Z,21.26
2022-07-27T13:13:10.327Z,26.37
2022-07-27T13:15:38.668Z,31.53
2022-07-27T13:18:08.307Z,27.19
2022-07-27T13:20:37.032Z,21.81
2022-07-27T13:23:08.205Z,20.60
2022-07-27T13:25:41.084Z,20.16
2022-07-27T13:28:13.006Z,24.19
2022-07-27T13:30:41.186Z,29.61
2022-07-27T13:33:09.732Z,33.44
2022-07-27T13:35:38.204Z,34.42
2022-07-27T13:38:06.284Z,29.95
2022-07-27T13:40:34.212Z,24.38
2022-07-27T13:43:02.563Z,23.40
2022-07-27T13:45:43.419Z,25.54
2022-07-27T13:48:13.197Z,23.99
2022-07-27T13:50:41.544Z,24.68
2022-07-27T13:53:15.008Z,21.40
2022-07-27T13:55:44.318Z,22.93
2022-07-27T13:58:13.426Z,23.71
2022-07-27T14:00:42.702Z,25.30
2022-07-27T14:03:11.819Z,27.98
2022-07-27T14:05:43.062Z,30.01
2022-07-27T14:08:19.300Z,31.84
2022-07-27T14:10:48.173Z,31.32
2022-07-27T14:13:17.964Z,28.61
2022-07-27T14:15:52.983Z,26.92
2022-07-27T14:18:24.468Z,24.03
2022-07-27T14:20:53.099Z,22.34
2022-07-27T14:23:21.015Z,19.71
2022-07-27T14:25:49.216Z,25.49
2022-07-27T14:28:17.298Z,27.50
2022-07-27T14:30:47.566Z,25.48
2022-07-27T14:33:17.821Z,25.17
2022-07-27T14:35:46.611Z,25.51
2022-07-27T14:38:30.200Z,27.50
2022-07-27T14:41:00.953Z,24.00
2022-07-27T14:43:31.613Z,26.17
2022-07-27T14:46:00.758Z,29.33
2022-07-27T14:49:04.086Z,29.89
2022-07-27T14:51:18.202Z,24.24
2022-07-27T14:53:46.236Z,22.05
2022-07-27T14:56:14.656Z,24.85
2022-07-27T14:58:42.636Z,26.05
2022-07-27T15:01:10.917Z,27.29
2022-07-27T15:03:40.695Z,28.55
2022-07-27T15:06:08.715Z,25.24
2022-07-27T15:08:36.703Z,23.12
2022-07-27T15:11:04.634Z,20.98
2022-07-27T15:13:32.784Z,19.23
2022-07-27T15:16:00.509Z,24.15
2022-07-27T15:18:28.727Z,24.66
2022-07-27T15:20:58.846Z,26.71
2022-07-27T15:23:27.262Z,28.21
2022-07-27T15:25:55.035Z,28.26
2022-07-27T15:28:23.447Z,27.16
2022-07-27T15:30:51.265Z,28.37
2022-07-27T15:33:19.270Z,30.53
2022-07-27T15:35:47.316Z,28.86
2022-07-27T15:38:16.959Z,30.06
2022-07-27T15:40:47.428Z,31.08
2022-07-27T15:43:18.065Z,30.86
2022-07-27T15:45:48.129Z,25.55
2022-07-27T15:48:17.802Z,22.03
2022-07-27T15:50:48.699Z,25.89
2022-07-27T15:53:20.807Z,26.56
2022-07-27T15:55:50.376Z,21.89
2022-07-27T15:58:19.547Z,21.47
2022-07-27T16:00:49.320Z,19.54
2022-07-27T16:03:19.370Z,22.73
2022-07-27T16:05:50.811Z,23.95
2022-07-27T16:08:20.817Z,23.53
2022-07-27T16:10:50.101Z,25.27
2022-07-27T16:13:18.871Z,26.89
2022-07-27T16:16:05.063Z,24.60
2022-07-27T16:18:38.582Z,22.60
2022-07-27T16:21:07.231Z,21.77
2022-07-27T16:23:36.818Z,21.63
2022-07-27T16:26:06.739Z,25.73
2022-07-27T16:28:39.048Z,27.09
2022-07-27T16:31:09.193Z,26.64
2022-07-27T16:33:37.360Z,29.22
2022-07-27T16:36:08.653Z,29.47
2022-07-27T16:38:39.150Z,27.25
2022-07-27T16:41:17.545Z,29.69
2022-07-27T16:43:45.738Z,30.35
2022-07-27T16:46:15.440Z,30.21
2022-07-27T16:48:43.775Z,27.21
2022-07-27T16:51:16.250Z,28.67
2022-07-27T16:53:48.114Z,30.40
2022-07-27T16:56:17.603Z,28.87
2022-07-27T16:58:45.460Z,26.54
2022-07-27T17:01:21.969Z,25.36
2022-07-27T17:03:56.480Z,27.80
2022-07-27T17:06:24.984Z,28.70
2022-07-27T17:08:54.551Z,28.37
2022-07-27T17:11:23.436Z,28.24
2022-07-27T17:13:53.833Z,28.58
2022-07-27T17:16:28.565Z,29.75
2022-07-27T17:18:56.915Z,29.70
2022-07-27T17:21:24.972Z,30.15
2022-07-27T17:23:54.280Z,29.59
2022-07-27T17:26:24.928Z,30.56
2022-07-27T17:28:53.501Z,30.30
2022-07-27T17:31:22.900Z,28.63
2022-07-27T17:33:51.429Z,29.25
2022-07-27T17:36:19.997Z,29.54
2022-07-27T17:38:48.891Z,30.16
2022-07-27T17:41:24.141Z,31.46
2022-07-27T17:43:54.116Z,31.29
2022-07-27T17:46:22.999Z,31.56
2022-07-27T17:48:52.101Z,31.84
2022-07-27T17:51:23.218Z,31.66
2022-07-27T17:53:51.561Z,31.88
2022-07-27T17:56:21.868Z,31.73
2022-07-27T17:58:49.932Z,31.90
2022-07-27T18:01:18.291Z,31.83
2022-07-27T18:04:07.264Z,33.02
2022-07-27T18:06:35.800Z,32.73
2022-07-27T18:09:04.203Z,33.11
2022-07-27T18:11:33.870Z,33.49
2022-07-27T18:14:01.859Z,33.05
2022-07-27T18:16:30.035Z,33.70
2022-07-27T18:18:58.957Z,33.11
2022-07-27T18:21:27.135Z,33.19
2022-07-27T18:23:55.406Z,32.71
2022-07-27T18:26:23.651Z,32.96
2022-07-27T18:28:55.661Z,34.14
2022-07-27T18:31:23.955Z,34.33
2022-07-27T18:33:54.585Z,35.34
2022-07-27T18:36:26.673Z,36.29
2022-07-27T18:38:55.239Z,36.72
2022-07-27T18:41:24.970Z,37.47
2022-07-27T18:43:55.942Z,37.53
2022-07-27T18:46:25.406Z,38.00
2022-07-27T18:48:54.701Z,38.21
2022-07-27T18:51:23.207Z,38.06
2022-07-27T18:53:53.736Z,38.49
2022-07-27T18:56:23.093Z,38.57
2022-07-27T18:58:51.496Z,39.24
2022-07-27T19:01:21.993Z,39.23
2022-07-27T19:03:50.987Z,39.50
2022-07-27T19:06:20.102Z,39.34
2022-07-27T19:08:51.074Z,39.69
2022-07-27T19:11:19.666Z,39.90
2022-07-27T19:13:47.890Z,40.42
2022-07-27T19:16:16.491Z,40.73
2022-07-27T19:18:45.804Z,41.23
2022-07-27T19:21:14.141Z,41.02
2022-07-27T19:23:42.123Z,41.42
2022-07-27T19:26:10.168Z,41.70
2022-07-27T19:28:39.361Z,41.97
2022-07-27T19:31:07.355Z,41.90
2022-07-27T19:33:53.439Z,41.97
2022-07-27T19:36:22.975Z,41.98
2022-07-27T19:38:52.241Z,42.16
2022-07-27T19:41:21.179Z,42.50
2022-07-27T19:43:49.693Z,42.71
2022-07-27T19:46:18.311Z,43.12
2022-07-27T19:48:46.757Z,43.08
2022-07-27T19:51:17.028Z,43.81
2022-07-27T19:53:46.119Z,43.55
2022-07-27T19:56:15.825Z,43.73
2022-07-27T19:58:44.216Z,44.13
2022-07-27T20:01:13.487Z,43.70
2022-07-27T20:03:52.658Z,43.84
2022-07-27T20:06:24.476Z,43.83
2022-07-27T20:08:56.105Z,43.97
2022-07-27T20:11:24.197Z,44.05
2022-07-27T20:13:52.536Z,43.87
2022-07-27T20:16:20.582Z,44.01
2022-07-27T20:18:48.480Z,44.00
2022-07-27T20:21:22.654Z,44.13
2022-07-27T20:23:53.271Z,44.04
2022-07-27T20:26:22.994Z,43.79
2022-07-27T20:28:51.019Z,43.83
2022-07-27T20:31:19.551Z,44.04
2022-07-27T20:33:47.948Z,44.12
2022-07-27T20:36:17.092Z,44.51
2022-07-27T20:38:45.459Z,44.59
2022-07-27T20:41:14.693Z,44.74
2022-07-27T20:43:43.016Z,44.71
2022-07-27T20:46:11.263Z,44.77
2022-07-27T20:48:40.981Z,44.58
2022-07-27T20:51:09.846Z,44.55
2022-07-27T20:53:39.441Z,44.32
2022-07-27T20:56:07.850Z,44.12
2022-07-27T20:58:37.220Z,44.33
2022-07-27T21:01:05.817Z,44.55
2022-07-27T21:03:35.699Z,44.60
2022-07-27T21:06:04.246Z,44.58
2022-07-27T21:08:32.737Z,44.52
2022-07-27T21:11:02.567Z,44.67
2022-07-27T21:13:31.039Z,44.41
2022-07-27T21:16:00.152Z,44.63
2022-07-27T21:18:29.203Z,44.53
2022-07-27T21:20:57.675Z,44.88
2022-07-27T21:23:43.024Z,45.00
2022-07-27T21:26:11.868Z,45.48
2022-07-27T21:28:45.349Z,45.12
2022-07-27T21:31:15.354Z,45.28
2022-07-27T21:33:43.537Z,45.40
2022-07-27T21:36:11.789Z,45.55
2022-07-27T21:38:40.224Z,45.47
2022-07-27T21:41:09.007Z,45.37
2022-07-27T21:43:37.704Z,45.49
2022-07-27T21:46:05.584Z,45.56
2022-07-27T21:48:35.843Z,45.67
2022-07-27T21:51:04.040Z,45.39
2022-07-27T21:53:32.916Z,45.67
2022-07-27T21:56:01.082Z,45.46
2022-07-27T21:58:28.985Z,45.76
2022-07-27T22:00:57.171Z,45.82
2022-07-27T22:03:25.414Z,45.67
2022-07-27T22:05:54.875Z,45.83
2022-07-27T22:08:22.838Z,45.95
2022-07-27T22:10:51.006Z,46.16
2022-07-27T22:13:19.578Z,46.07
2022-07-27T22:15:49.559Z,46.06
2022-07-27T22:18:18.090Z,45.89
2022-07-27T22:20:45.993Z,46.38
2022-07-27T22:23:15.549Z,45.92
2022-07-27T22:25:43.697Z,46.06
2022-07-27T22:28:11.994Z,46.22
2022-07-27T22:30:41.235Z,46.60
2022-07-27T22:33:09.319Z,46.54
2022-07-27T22:35:37.391Z,46.88
2022-07-27T22:38:05.393Z,47.48
2022-07-27T22:40:34.616Z,47.87
2022-07-27T22:43:02.705Z,48.12
2022-07-27T22:45:31.608Z,48.04
2022-07-27T22:48:00.138Z,48.51
2022-07-27T22:50:28.631Z,48.42
2022-07-27T22:52:59.254Z,48.78
2022-07-27T22:55:27.296Z,48.72
2022-07-27T22:57:56.850Z,48.36
2022-07-27T23:00:24.811Z,48.84
2022-07-27T23:02:52.927Z,48.99
2022-07-27T23:05:21.002Z,49.15
2022-07-27T23:07:49.143Z,48.65
2022-07-27T23:10:34.968Z,48.70
2022-07-27T23:13:04.549Z,48.79
2022-07-27T23:15:32.827Z,49.28
2022-07-27T23:18:01.359Z,49.61
2022-07-27T23:20:29.591Z,49.99
2022-07-27T23:22:57.726Z,50.12
2022-07-27T23:25:36.095Z,50.17
2022-07-27T23:28:06.612Z,50.55
2022-07-27T23:30:35.000Z,50.95
2022-07-27T23:33:03.215Z,51.04
2022-07-27T23:35:31.455Z,51.58
2022-07-27T23:37:59.641Z,51.75
2022-07-27T23:40:29.120Z,51.60
2022-07-27T23:42:57.302Z,51.79
2022-07-27T23:45:28.139Z,52.04
2022-07-27T23:47:56.428Z,52.10
2022-07-27T23:50:24.677Z,52.08
2022-07-27T23:52:52.890Z,52.33
2022-07-27T23:55:21.196Z,52.57
2022-07-27T23:57:49.336Z,52.67
